Blythe, Georgia
Current Conditions -  °F | °C
As of 3:53 PM on Saturday 22 Nov 2014 (Local Time) from KAGS Reporting Station
Scattered Clouds Scattered Clouds  
Wind Chill: 64°   Ceiling: Unl
Heat Index: 64°   Visibility: 10mi
Dew Point: 25°   Wind: 7mph
Humidity: 23%   Direction: 90°E
Pressure: 30.33"   Gusts: NA
Location:  33.29°N, 82.2°W
Report Text: KAGS 222053Z 09006KT 10SM SCT060 18/M04 A3033 RMK AO2 SLP270 T01781039 56028
Loading
Personal Weather Stations






























Interactive Weather Map New forecast layout! Learn more

10-Day Weather Forecast

Advertisements
Track Severe Weather on mobile